Aérodrome :
LOGIN :

S'inscrire | Disclaimer

   EN    FR    IT 

 










Légende :    VFR   VFR Marginal   IFR   IFR Intensif   IFR Très Intensif
Visi : 
Plafond : 
>= 8 km
>= 3000ft
5 à 8 km
1000 à 3000 ft
1500m à 5 km
500 à 1000 ft
800 à 1500m
200 à 500 ft
< 800m
< 200 ft
Symboles :   Orages  Brouillard  Fortes neiges  Fortes précipitations  Vent > 20 kt
SIGMETs :   Divers  Orages  Givrage  Turbulence  Onde Orograph.  Cendres Volcan.







- Altitude de l'aérodrome : 526 ft
- Code IATA : LTN
- Voir les cartes d'approche


EGGW - London Luton

DERNIER METAR :
  • 230150Z AUTO 24007KT 9000 SCT026 06/06 Q1028

METARs EXPIRÉS :
  • 230120Z AUTO 24006KT 9000 SCT023 07/06 Q1028
  • 230050Z AUTO 25007KT 9999 BKN023 07/06 Q1027
  • 230020Z AUTO 25007KT 9999 SCT025 07/06 Q1027
  • 222350Z AUTO 25006KT 9999 NCD 07/06 Q1027
  • 222320Z AUTO 25006KT 9999 NCD 07/06 Q1027

TAF AMD TAF EGGW
Valide du 23 à 00h jusqu'au 24 à 00h UTC


222357Z 2300/2324 VRB05KT 9999 BKN025
TEMPO 2300/2306 BKN014
PROB30
TEMPO 2300/2306 8000 -RADZ BKN008
BECMG 2306/2309 02010KT
BECMG 2317/2320 10010KT
BECMG 2321/2324 02003KT
ATIS : +44 1582 395 204
Pas de NOTAMs connus pour ce terrain.



MET'MAP, la Météo Aéronautique d'un coup d'oeil ! - Copyright ORBIFLY Décembre 2007 - Disclaimer

ORBIFLY MET'MAP TEAM :

Programmation & Développement : Alexandra Zaïnal
Conception & Développement : Baudouin d'Aumeries
Co-Programmation & Développement : Marc-Olivier Méhu
Soutien technique & logistique : Manuel Goepfert

Contact : metmap@orbifly.com




SOURCES & CREDITS :

   NOAA